sensor_id;sensor_type;location;lat;lon;timestamp;P1;durP1;ratioP1;P2;durP2;ratioP2
37645;SDS011;23489;49.600;6.138;2022-12-07T00:01:09;14.52;;;9.00;;
37645;SDS011;23489;49.600;6.138;2022-12-07T00:03:37;18.67;;;8.98;;
37645;SDS011;23489;49.600;6.138;2022-12-07T00:06:04;14.05;;;8.95;;
37645;SDS011;23489;49.600;6.138;2022-12-07T00:08:32;17.40;;;9.60;;
37645;SDS011;23489;49.600;6.138;2022-12-07T00:11:08;17.42;;;9.10;;
37645;SDS011;23489;49.600;6.138;2022-12-07T00:13:36;14.57;;;8.45;;
37645;SDS011;23489;49.600;6.138;2022-12-07T00:16:03;18.70;;;9.40;;
37645;SDS011;23489;49.600;6.138;2022-12-07T00:18:34;17.05;;;9.25;;
37645;SDS011;23489;49.600;6.138;2022-12-07T00:21:01;18.38;;;9.75;;
37645;SDS011;23489;49.600;6.138;2022-12-07T00:23:41;15.55;;;9.30;;
37645;SDS011;23489;49.600;6.138;2022-12-07T00:26:09;15.95;;;9.30;;
37645;SDS011;23489;49.600;6.138;2022-12-07T00:28:37;15.50;;;9.10;;
37645;SDS011;23489;49.600;6.138;2022-12-07T00:31:04;16.30;;;9.63;;
37645;SDS011;23489;49.600;6.138;2022-12-07T00:33:34;16.25;;;8.73;;
37645;SDS011;23489;49.600;6.138;2022-12-07T00:36:00;14.90;;;8.80;;
37645;SDS011;23489;49.600;6.138;2022-12-07T00:38:29;15.07;;;8.30;;
37645;SDS011;23489;49.600;6.138;2022-12-07T00:40:57;14.40;;;8.77;;
37645;SDS011;23489;49.600;6.138;2022-12-07T00:43:24;13.88;;;8.40;;
37645;SDS011;23489;49.600;6.138;2022-12-07T00:45:50;14.60;;;8.93;;
37645;SDS011;23489;49.600;6.138;2022-12-07T00:48:15;13.55;;;8.55;;
37645;SDS011;23489;49.600;6.138;2022-12-07T00:50:41;14.98;;;9.45;;
37645;SDS011;23489;49.600;6.138;2022-12-07T00:53:06;13.43;;;8.30;;
37645;SDS011;23489;49.600;6.138;2022-12-07T00:55:33;16.17;;;8.63;;
37645;SDS011;23489;49.600;6.138;2022-12-07T00:57:59;13.52;;;8.18;;
37645;SDS011;23489;49.600;6.138;2022-12-07T01:00:25;14.55;;;9.00;;
37645;SDS011;23489;49.600;6.138;2022-12-07T01:02:50;13.45;;;8.35;;
37645;SDS011;23489;49.600;6.138;2022-12-07T01:05:16;13.65;;;8.57;;
37645;SDS011;23489;49.600;6.138;2022-12-07T01:07:42;13.45;;;8.57;;
37645;SDS011;23489;49.600;6.138;2022-12-07T01:10:08;14.15;;;8.32;;
37645;SDS011;23489;49.600;6.138;2022-12-07T01:12:34;14.85;;;9.15;;
37645;SDS011;23489;49.600;6.138;2022-12-07T01:14:59;15.05;;;8.85;;
37645;SDS011;23489;49.600;6.138;2022-12-07T01:17:25;15.40;;;8.95;;
37645;SDS011;23489;49.600;6.138;2022-12-07T01:19:50;15.68;;;8.98;;
37645;SDS011;23489;49.600;6.138;2022-12-07T01:22:16;14.82;;;8.48;;
37645;SDS011;23489;49.600;6.138;2022-12-07T01:24:42;15.93;;;10.10;;
37645;SDS011;23489;49.600;6.138;2022-12-07T01:27:07;16.23;;;9.23;;
37645;SDS011;23489;49.600;6.138;2022-12-07T01:29:33;17.20;;;9.93;;
37645;SDS011;23489;49.600;6.138;2022-12-07T01:31:58;18.55;;;10.82;;
37645;SDS011;23489;49.600;6.138;2022-12-07T01:34:24;18.50;;;10.98;;
37645;SDS011;23489;49.600;6.138;2022-12-07T01:36:50;22.70;;;11.38;;
37645;SDS011;23489;49.600;6.138;2022-12-07T01:39:15;22.33;;;12.02;;
37645;SDS011;23489;49.600;6.138;2022-12-07T01:41:41;25.08;;;12.45;;
37645;SDS011;23489;49.600;6.138;2022-12-07T01:46:44;24.42;;;12.95;;
37645;SDS011;23489;49.600;6.138;2022-12-07T01:51:48;29.80;;;13.60;;
37645;SDS011;23489;49.600;6.138;2022-12-07T01:54:17;22.70;;;13.07;;
37645;SDS011;23489;49.600;6.138;2022-12-07T01:56:46;22.25;;;12.25;;
37645;SDS011;23489;49.600;6.138;2022-12-07T01:59:16;27.13;;;12.65;;
37645;SDS011;23489;49.600;6.138;2022-12-07T02:01:44;21.88;;;12.82;;
37645;SDS011;23489;49.600;6.138;2022-12-07T02:04:10;25.77;;;13.10;;
37645;SDS011;23489;49.600;6.138;2022-12-07T02:06:36;23.05;;;12.75;;
37645;SDS011;23489;49.600;6.138;2022-12-07T02:09:02;23.70;;;13.48;;
37645;SDS011;23489;49.600;6.138;2022-12-07T02:11:29;22.65;;;12.57;;
37645;SDS011;23489;49.600;6.138;2022-12-07T02:13:55;23.95;;;12.50;;
37645;SDS011;23489;49.600;6.138;2022-12-07T02:22:17;23.95;;;13.02;;
37645;SDS011;23489;49.600;6.138;2022-12-07T02:30:16;25.95;;;13.32;;
37645;SDS011;23489;49.600;6.138;2022-12-07T02:32:45;28.70;;;13.85;;
37645;SDS011;23489;49.600;6.138;2022-12-07T02:35:20;23.98;;;12.07;;
37645;SDS011;23489;49.600;6.138;2022-12-07T02:37:58;27.45;;;13.55;;
37645;SDS011;23489;49.600;6.138;2022-12-07T02:43:16;28.58;;;13.35;;
37645;SDS011;23489;49.600;6.138;2022-12-07T02:45:47;26.05;;;13.48;;
37645;SDS011;23489;49.600;6.138;2022-12-07T02:48:16;30.90;;;14.27;;
37645;SDS011;23489;49.600;6.138;2022-12-07T02:50:50;30.45;;;13.40;;
37645;SDS011;23489;49.600;6.138;2022-12-07T02:56:02;28.90;;;12.82;;
37645;SDS011;23489;49.600;6.138;2022-12-07T03:03:42;30.63;;;14.13;;
37645;SDS011;23489;49.600;6.138;2022-12-07T03:06:17;31.33;;;14.25;;
37645;SDS011;23489;49.600;6.138;2022-12-07T03:08:53;26.48;;;14.00;;
37645;SDS011;23489;49.600;6.138;2022-12-07T03:11:33;29.33;;;13.90;;
37645;SDS011;23489;49.600;6.138;2022-12-07T03:14:13;28.48;;;13.90;;
37645;SDS011;23489;49.600;6.138;2022-12-07T03:16:55;32.38;;;13.18;;
37645;SDS011;23489;49.600;6.138;2022-12-07T03:19:28;25.67;;;12.70;;
37645;SDS011;23489;49.600;6.138;2022-12-07T03:22:05;31.52;;;13.65;;
37645;SDS011;23489;49.600;6.138;2022-12-07T03:24:36;26.85;;;13.52;;
37645;SDS011;23489;49.600;6.138;2022-12-07T03:27:15;26.40;;;13.10;;
37645;SDS011;23489;49.600;6.138;2022-12-07T03:29:50;29.45;;;13.45;;
37645;SDS011;23489;49.600;6.138;2022-12-07T03:32:45;22.17;;;13.00;;
37645;SDS011;23489;49.600;6.138;2022-12-07T03:35:34;23.73;;;12.60;;
37645;SDS011;23489;49.600;6.138;2022-12-07T03:40:53;25.45;;;13.35;;
37645;SDS011;23489;49.600;6.138;2022-12-07T03:43:25;24.08;;;12.57;;
37645;SDS011;23489;49.600;6.138;2022-12-07T03:45:59;23.35;;;12.20;;
37645;SDS011;23489;49.600;6.138;2022-12-07T03:51:26;22.67;;;11.07;;
37645;SDS011;23489;49.600;6.138;2022-12-07T03:54:09;27.00;;;12.35;;
37645;SDS011;23489;49.600;6.138;2022-12-07T03:56:56;21.77;;;11.77;;
37645;SDS011;23489;49.600;6.138;2022-12-07T03:59:23;19.95;;;11.38;;
37645;SDS011;23489;49.600;6.138;2022-12-07T04:01:54;21.48;;;12.05;;
37645;SDS011;23489;49.600;6.138;2022-12-07T04:04:22;22.52;;;12.18;;
37645;SDS011;23489;49.600;6.138;2022-12-07T04:06:49;24.45;;;11.38;;
37645;SDS011;23489;49.600;6.138;2022-12-07T04:09:15;19.67;;;11.90;;
37645;SDS011;23489;49.600;6.138;2022-12-07T04:11:41;20.42;;;11.30;;
37645;SDS011;23489;49.600;6.138;2022-12-07T04:14:07;23.80;;;11.80;;
37645;SDS011;23489;49.600;6.138;2022-12-07T04:16:49;22.35;;;11.65;;
37645;SDS011;23489;49.600;6.138;2022-12-07T04:19:22;23.75;;;12.25;;
37645;SDS011;23489;49.600;6.138;2022-12-07T04:21:49;21.00;;;11.77;;
37645;SDS011;23489;49.600;6.138;2022-12-07T04:24:15;22.30;;;12.13;;
37645;SDS011;23489;49.600;6.138;2022-12-07T04:26:41;23.27;;;11.45;;
37645;SDS011;23489;49.600;6.138;2022-12-07T04:29:08;23.92;;;11.60;;
37645;SDS011;23489;49.600;6.138;2022-12-07T04:31:34;24.50;;;12.38;;
37645;SDS011;23489;49.600;6.138;2022-12-07T04:34:01;25.50;;;13.13;;
37645;SDS011;23489;49.600;6.138;2022-12-07T04:36:27;25.65;;;13.60;;
37645;SDS011;23489;49.600;6.138;2022-12-07T04:38:53;27.40;;;12.85;;
37645;SDS011;23489;49.600;6.138;2022-12-07T04:41:19;22.10;;;12.20;;
37645;SDS011;23489;49.600;6.138;2022-12-07T04:43:52;25.85;;;13.23;;
37645;SDS011;23489;49.600;6.138;2022-12-07T04:46:20;27.13;;;12.82;;
37645;SDS011;23489;49.600;6.138;2022-12-07T04:48:45;24.92;;;12.52;;
37645;SDS011;23489;49.600;6.138;2022-12-07T04:51:11;26.23;;;12.32;;
37645;SDS011;23489;49.600;6.138;2022-12-07T04:53:43;25.65;;;12.98;;
37645;SDS011;23489;49.600;6.138;2022-12-07T04:56:09;24.63;;;12.57;;
37645;SDS011;23489;49.600;6.138;2022-12-07T04:58:34;26.00;;;13.60;;
37645;SDS011;23489;49.600;6.138;2022-12-07T05:01:00;28.33;;;14.13;;
37645;SDS011;23489;49.600;6.138;2022-12-07T05:03:26;27.92;;;14.00;;
37645;SDS011;23489;49.600;6.138;2022-12-07T05:05:51;31.45;;;14.52;;
37645;SDS011;23489;49.600;6.138;2022-12-07T05:08:17;29.80;;;14.00;;
37645;SDS011;23489;49.600;6.138;2022-12-07T05:10:42;28.60;;;13.57;;
37645;SDS011;23489;49.600;6.138;2022-12-07T05:13:08;26.67;;;14.15;;
37645;SDS011;23489;49.600;6.138;2022-12-07T05:15:34;28.95;;;13.75;;
37645;SDS011;23489;49.600;6.138;2022-12-07T05:17:59;30.70;;;14.30;;
37645;SDS011;23489;49.600;6.138;2022-12-07T05:20:25;25.55;;;13.27;;
37645;SDS011;23489;49.600;6.138;2022-12-07T05:22:50;26.20;;;13.63;;
37645;SDS011;23489;49.600;6.138;2022-12-07T05:25:16;33.72;;;14.45;;
37645;SDS011;23489;49.600;6.138;2022-12-07T05:27:42;32.85;;;15.35;;
37645;SDS011;23489;49.600;6.138;2022-12-07T05:30:08;29.98;;;14.25;;
37645;SDS011;23489;49.600;6.138;2022-12-07T05:32:33;32.78;;;14.57;;
37645;SDS011;23489;49.600;6.138;2022-12-07T05:34:59;29.25;;;12.82;;
37645;SDS011;23489;49.600;6.138;2022-12-07T05:37:25;29.50;;;14.60;;
37645;SDS011;23489;49.600;6.138;2022-12-07T05:39:50;30.50;;;15.18;;
37645;SDS011;23489;49.600;6.138;2022-12-07T05:42:16;32.90;;;13.25;;
37645;SDS011;23489;49.600;6.138;2022-12-07T05:44:45;33.83;;;14.98;;
37645;SDS011;23489;49.600;6.138;2022-12-07T05:47:12;29.55;;;13.98;;
37645;SDS011;23489;49.600;6.138;2022-12-07T05:49:39;34.58;;;14.55;;
37645;SDS011;23489;49.600;6.138;2022-12-07T05:52:05;31.60;;;13.88;;
37645;SDS011;23489;49.600;6.138;2022-12-07T05:54:31;34.65;;;14.68;;
37645;SDS011;23489;49.600;6.138;2022-12-07T05:56:57;31.45;;;15.00;;
37645;SDS011;23489;49.600;6.138;2022-12-07T05:59:23;33.63;;;14.73;;
37645;SDS011;23489;49.600;6.138;2022-12-07T06:01:59;33.30;;;14.27;;
37645;SDS011;23489;49.600;6.138;2022-12-07T06:04:30;31.30;;;15.85;;
37645;SDS011;23489;49.600;6.138;2022-12-07T06:07:00;33.30;;;15.27;;
37645;SDS011;23489;49.600;6.138;2022-12-07T06:09:26;33.65;;;15.38;;
37645;SDS011;23489;49.600;6.138;2022-12-07T06:11:53;37.45;;;15.60;;
37645;SDS011;23489;49.600;6.138;2022-12-07T06:14:38;35.28;;;15.57;;
37645;SDS011;23489;49.600;6.138;2022-12-07T06:17:04;34.78;;;15.50;;
37645;SDS011;23489;49.600;6.138;2022-12-07T06:19:30;31.92;;;15.73;;
37645;SDS011;23489;49.600;6.138;2022-12-07T06:21:56;31.23;;;13.80;;
37645;SDS011;23489;49.600;6.138;2022-12-07T06:24:21;34.17;;;15.80;;
37645;SDS011;23489;49.600;6.138;2022-12-07T06:26:47;34.00;;;14.95;;
37645;SDS011;23489;49.600;6.138;2022-12-07T06:29:13;31.83;;;14.27;;
37645;SDS011;23489;49.600;6.138;2022-12-07T06:31:40;33.60;;;13.75;;
37645;SDS011;23489;49.600;6.138;2022-12-07T06:34:07;30.63;;;15.00;;
37645;SDS011;23489;49.600;6.138;2022-12-07T06:36:35;30.90;;;13.65;;
37645;SDS011;23489;49.600;6.138;2022-12-07T06:39:02;36.97;;;15.70;;
37645;SDS011;23489;49.600;6.138;2022-12-07T06:41:28;34.55;;;14.63;;
37645;SDS011;23489;49.600;6.138;2022-12-07T06:43:54;31.20;;;14.38;;
37645;SDS011;23489;49.600;6.138;2022-12-07T06:46:20;37.00;;;15.32;;
37645;SDS011;23489;49.600;6.138;2022-12-07T06:48:46;37.90;;;15.68;;
37645;SDS011;23489;49.600;6.138;2022-12-07T06:51:12;34.72;;;14.93;;
37645;SDS011;23489;49.600;6.138;2022-12-07T06:53:38;40.10;;;15.10;;
37645;SDS011;23489;49.600;6.138;2022-12-07T06:56:04;32.25;;;13.60;;
37645;SDS011;23489;49.600;6.138;2022-12-07T06:58:30;34.38;;;15.10;;
37645;SDS011;23489;49.600;6.138;2022-12-07T07:00:56;28.60;;;13.45;;
37645;SDS011;23489;49.600;6.138;2022-12-07T07:03:22;33.58;;;13.98;;
37645;SDS011;23489;49.600;6.138;2022-12-07T07:05:48;30.63;;;14.02;;
37645;SDS011;23489;49.600;6.138;2022-12-07T07:08:13;35.53;;;13.40;;
37645;SDS011;23489;49.600;6.138;2022-12-07T07:10:40;30.63;;;14.25;;
37645;SDS011;23489;49.600;6.138;2022-12-07T07:13:06;37.30;;;18.98;;
37645;SDS011;23489;49.600;6.138;2022-12-07T07:15:32;35.33;;;17.95;;
37645;SDS011;23489;49.600;6.138;2022-12-07T07:17:59;33.45;;;17.83;;
37645;SDS011;23489;49.600;6.138;2022-12-07T07:20:24;32.92;;;17.77;;
37645;SDS011;23489;49.600;6.138;2022-12-07T07:22:50;31.38;;;15.27;;
37645;SDS011;23489;49.600;6.138;2022-12-07T07:25:18;28.05;;;13.52;;
37645;SDS011;23489;49.600;6.138;2022-12-07T07:27:44;27.23;;;13.00;;
37645;SDS011;23489;49.600;6.138;2022-12-07T07:30:09;28.48;;;13.52;;
37645;SDS011;23489;49.600;6.138;2022-12-07T07:32:36;28.80;;;12.85;;
37645;SDS011;23489;49.600;6.138;2022-12-07T07:35:02;30.52;;;12.93;;
37645;SDS011;23489;49.600;6.138;2022-12-07T07:37:28;27.40;;;12.60;;
37645;SDS011;23489;49.600;6.138;2022-12-07T07:39:53;25.30;;;12.20;;
37645;SDS011;23489;49.600;6.138;2022-12-07T07:42:19;26.00;;;13.05;;
37645;SDS011;23489;49.600;6.138;2022-12-07T07:44:45;24.17;;;11.75;;
37645;SDS011;23489;49.600;6.138;2022-12-07T07:47:11;24.33;;;11.77;;
37645;SDS011;23489;49.600;6.138;2022-12-07T07:49:36;22.63;;;10.73;;
37645;SDS011;23489;49.600;6.138;2022-12-07T07:52:02;23.75;;;11.00;;
37645;SDS011;23489;49.600;6.138;2022-12-07T07:54:28;24.58;;;11.40;;
37645;SDS011;23489;49.600;6.138;2022-12-07T07:56:54;26.73;;;11.98;;
37645;SDS011;23489;49.600;6.138;2022-12-07T07:59:20;25.35;;;13.15;;
37645;SDS011;23489;49.600;6.138;2022-12-07T08:01:45;23.08;;;10.70;;
37645;SDS011;23489;49.600;6.138;2022-12-07T08:04:11;21.45;;;10.80;;
37645;SDS011;23489;49.600;6.138;2022-12-07T08:06:37;24.87;;;14.20;;
37645;SDS011;23489;49.600;6.138;2022-12-07T08:09:02;23.40;;;11.35;;
37645;SDS011;23489;49.600;6.138;2022-12-07T08:11:30;23.17;;;11.27;;
37645;SDS011;23489;49.600;6.138;2022-12-07T08:13:55;18.77;;;9.82;;
37645;SDS011;23489;49.600;6.138;2022-12-07T08:16:21;19.13;;;10.63;;
37645;SDS011;23489;49.600;6.138;2022-12-07T08:18:47;18.48;;;10.00;;
37645;SDS011;23489;49.600;6.138;2022-12-07T08:21:13;20.80;;;10.70;;
37645;SDS011;23489;49.600;6.138;2022-12-07T08:23:39;20.67;;;10.07;;
37645;SDS011;23489;49.600;6.138;2022-12-07T08:26:07;18.15;;;9.50;;
37645;SDS011;23489;49.600;6.138;2022-12-07T08:28:35;18.55;;;9.18;;
37645;SDS011;23489;49.600;6.138;2022-12-07T08:31:05;14.70;;;7.38;;
37645;SDS011;23489;49.600;6.138;2022-12-07T08:33:34;14.20;;;7.85;;
37645;SDS011;23489;49.600;6.138;2022-12-07T08:38:43;17.75;;;8.48;;
37645;SDS011;23489;49.600;6.138;2022-12-07T08:41:09;15.35;;;8.90;;
37645;SDS011;23489;49.600;6.138;2022-12-07T08:43:35;18.48;;;8.90;;
37645;SDS011;23489;49.600;6.138;2022-12-07T08:49:10;12.82;;;7.22;;
37645;SDS011;23489;49.600;6.138;2022-12-07T08:51:38;14.60;;;7.30;;
37645;SDS011;23489;49.600;6.138;2022-12-07T08:54:06;11.88;;;7.13;;
37645;SDS011;23489;49.600;6.138;2022-12-07T08:56:35;12.02;;;6.20;;
37645;SDS011;23489;49.600;6.138;2022-12-07T08:59:01;11.60;;;6.75;;
37645;SDS011;23489;49.600;6.138;2022-12-07T09:01:28;12.52;;;6.47;;
37645;SDS011;23489;49.600;6.138;2022-12-07T09:03:53;10.73;;;6.15;;
37645;SDS011;23489;49.600;6.138;2022-12-07T09:06:19;9.68;;;6.18;;
37645;SDS011;23489;49.600;6.138;2022-12-07T09:08:49;12.07;;;5.43;;
37645;SDS011;23489;49.600;6.138;2022-12-07T09:11:18;11.98;;;5.80;;
37645;SDS011;23489;49.600;6.138;2022-12-07T09:13:44;10.48;;;5.68;;
37645;SDS011;23489;49.600;6.138;2022-12-07T09:16:09;9.35;;;5.18;;
37645;SDS011;23489;49.600;6.138;2022-12-07T09:18:35;9.80;;;6.13;;
37645;SDS011;23489;49.600;6.138;2022-12-07T09:21:01;10.02;;;5.63;;
37645;SDS011;23489;49.600;6.138;2022-12-07T09:23:27;10.40;;;6.15;;
37645;SDS011;23489;49.600;6.138;2022-12-07T09:25:52;12.05;;;5.43;;
37645;SDS011;23489;49.600;6.138;2022-12-07T09:28:18;9.82;;;5.53;;
37645;SDS011;23489;49.600;6.138;2022-12-07T09:30:47;10.05;;;5.65;;
37645;SDS011;23489;49.600;6.138;2022-12-07T09:33:13;8.05;;;4.95;;
37645;SDS011;23489;49.600;6.138;2022-12-07T09:35:49;9.50;;;5.07;;
37645;SDS011;23489;49.600;6.138;2022-12-07T09:38:16;10.05;;;5.05;;
37645;SDS011;23489;49.600;6.138;2022-12-07T09:40:42;10.57;;;6.32;;
37645;SDS011;23489;49.600;6.138;2022-12-07T09:43:15;10.40;;;5.90;;
37645;SDS011;23489;49.600;6.138;2022-12-07T09:45:44;11.55;;;6.10;;
37645;SDS011;23489;49.600;6.138;2022-12-07T09:48:16;10.40;;;6.18;;
37645;SDS011;23489;49.600;6.138;2022-12-07T09:50:44;12.55;;;6.97;;
37645;SDS011;23489;49.600;6.138;2022-12-07T09:53:29;9.13;;;5.45;;
37645;SDS011;23489;49.600;6.138;2022-12-07T09:55:58;10.50;;;5.68;;
37645;SDS011;23489;49.600;6.138;2022-12-07T09:58:25;9.07;;;5.32;;
37645;SDS011;23489;49.600;6.138;2022-12-07T10:01:00;13.77;;;6.05;;
37645;SDS011;23489;49.600;6.138;2022-12-07T10:03:26;12.10;;;5.10;;
37645;SDS011;23489;49.600;6.138;2022-12-07T10:05:53;11.48;;;5.22;;
37645;SDS011;23489;49.600;6.138;2022-12-07T10:08:20;8.05;;;4.93;;
37645;SDS011;23489;49.600;6.138;2022-12-07T10:10:48;9.38;;;5.10;;
37645;SDS011;23489;49.600;6.138;2022-12-07T10:13:21;9.95;;;5.47;;
37645;SDS011;23489;49.600;6.138;2022-12-07T10:15:59;7.38;;;4.88;;
37645;SDS011;23489;49.600;6.138;2022-12-07T10:18:32;11.82;;;5.90;;
37645;SDS011;23489;49.600;6.138;2022-12-07T10:21:22;9.48;;;5.13;;
37645;SDS011;23489;49.600;6.138;2022-12-07T10:24:05;10.75;;;5.05;;
37645;SDS011;23489;49.600;6.138;2022-12-07T10:26:41;8.80;;;4.95;;
37645;SDS011;23489;49.600;6.138;2022-12-07T10:34:51;6.70;;;4.28;;
37645;SDS011;23489;49.600;6.138;2022-12-07T10:37:40;8.23;;;4.43;;
37645;SDS011;23489;49.600;6.138;2022-12-07T10:40:23;8.77;;;4.75;;
37645;SDS011;23489;49.600;6.138;2022-12-07T10:43:08;9.32;;;4.38;;
37645;SDS011;23489;49.600;6.138;2022-12-07T10:48:30;8.35;;;5.13;;
37645;SDS011;23489;49.600;6.138;2022-12-07T10:53:57;7.63;;;4.68;;
37645;SDS011;23489;49.600;6.138;2022-12-07T10:59:00;11.82;;;5.25;;
37645;SDS011;23489;49.600;6.138;2022-12-07T11:01:41;8.93;;;4.85;;
37645;SDS011;23489;49.600;6.138;2022-12-07T11:06:59;11.40;;;5.20;;
37645;SDS011;23489;49.600;6.138;2022-12-07T11:18:27;7.15;;;4.65;;
37645;SDS011;23489;49.600;6.138;2022-12-07T11:34:39;7.78;;;4.75;;
37645;SDS011;23489;49.600;6.138;2022-12-07T11:37:16;11.80;;;4.97;;
37645;SDS011;23489;49.600;6.138;2022-12-07T11:39:53;9.00;;;4.65;;
37645;SDS011;23489;49.600;6.138;2022-12-07T11:42:22;6.85;;;3.00;;
37645;SDS011;23489;49.600;6.138;2022-12-07T11:45:04;5.88;;;4.05;;
37645;SDS011;23489;49.600;6.138;2022-12-07T11:48:01;12.23;;;4.63;;
37645;SDS011;23489;49.600;6.138;2022-12-07T11:53:22;9.57;;;4.18;;
37645;SDS011;23489;49.600;6.138;2022-12-07T11:56:02;8.07;;;4.10;;
37645;SDS011;23489;49.600;6.138;2022-12-07T12:01:08;6.65;;;3.78;;
37645;SDS011;23489;49.600;6.138;2022-12-07T12:03:47;6.43;;;3.78;;
37645;SDS011;23489;49.600;6.138;2022-12-07T12:06:17;7.22;;;3.35;;
37645;SDS011;23489;49.600;6.138;2022-12-07T12:08:46;6.13;;;4.10;;
37645;SDS011;23489;49.600;6.138;2022-12-07T12:16:59;7.10;;;3.97;;
37645;SDS011;23489;49.600;6.138;2022-12-07T12:22:35;7.80;;;4.72;;
37645;SDS011;23489;49.600;6.138;2022-12-07T12:25:07;7.35;;;4.57;;
37645;SDS011;23489;49.600;6.138;2022-12-07T12:27:45;8.07;;;4.28;;
37645;SDS011;23489;49.600;6.138;2022-12-07T12:33:03;10.57;;;5.40;;
37645;SDS011;23489;49.600;6.138;2022-12-07T12:35:48;8.73;;;4.78;;
37645;SDS011;23489;49.600;6.138;2022-12-07T12:51:50;12.27;;;6.63;;
37645;SDS011;23489;49.600;6.138;2022-12-07T12:54:27;11.02;;;6.13;;
37645;SDS011;23489;49.600;6.138;2022-12-07T13:04:55;15.60;;;6.50;;
37645;SDS011;23489;49.600;6.138;2022-12-07T13:23:36;13.18;;;7.20;;
37645;SDS011;23489;49.600;6.138;2022-12-07T13:28:40;15.60;;;7.50;;
37645;SDS011;23489;49.600;6.138;2022-12-07T13:33:38;12.63;;;7.28;;
37645;SDS011;23489;49.600;6.138;2022-12-07T13:36:04;13.90;;;7.82;;
37645;SDS011;23489;49.600;6.138;2022-12-07T13:38:37;12.70;;;7.70;;
37645;SDS011;23489;49.600;6.138;2022-12-07T13:41:10;15.43;;;7.93;;
37645;SDS011;23489;49.600;6.138;2022-12-07T13:43:42;13.93;;;7.13;;
37645;SDS011;23489;49.600;6.138;2022-12-07T13:46:09;13.27;;;7.05;;
37645;SDS011;23489;49.600;6.138;2022-12-07T13:48:44;11.07;;;7.15;;
37645;SDS011;23489;49.600;6.138;2022-12-07T13:51:25;16.45;;;7.07;;
37645;SDS011;23489;49.600;6.138;2022-12-07T13:53:53;13.95;;;6.50;;
37645;SDS011;23489;49.600;6.138;2022-12-07T13:56:25;12.38;;;6.22;;
37645;SDS011;23489;49.600;6.138;2022-12-07T13:58:56;12.23;;;6.55;;
37645;SDS011;23489;49.600;6.138;2022-12-07T14:01:22;12.48;;;5.53;;
37645;SDS011;23489;49.600;6.138;2022-12-07T14:03:49;9.85;;;5.85;;
37645;SDS011;23489;49.600;6.138;2022-12-07T14:06:18;12.98;;;5.60;;
37645;SDS011;23489;49.600;6.138;2022-12-07T14:08:45;9.07;;;5.45;;
37645;SDS011;23489;49.600;6.138;2022-12-07T14:11:15;9.65;;;5.50;;
37645;SDS011;23489;49.600;6.138;2022-12-07T14:13:44;11.40;;;5.60;;
37645;SDS011;23489;49.600;6.138;2022-12-07T14:16:29;14.00;;;5.68;;
37645;SDS011;23489;49.600;6.138;2022-12-07T14:18:58;11.98;;;5.47;;
37645;SDS011;23489;49.600;6.138;2022-12-07T14:21:26;10.00;;;5.45;;
37645;SDS011;23489;49.600;6.138;2022-12-07T14:26:41;9.43;;;5.57;;
37645;SDS011;23489;49.600;6.138;2022-12-07T14:31:54;10.30;;;5.53;;
37645;SDS011;23489;49.600;6.138;2022-12-07T14:34:21;8.52;;;4.85;;
37645;SDS011;23489;49.600;6.138;2022-12-07T14:36:48;15.75;;;5.60;;
37645;SDS011;23489;49.600;6.138;2022-12-07T14:39:13;10.93;;;5.55;;
37645;SDS011;23489;49.600;6.138;2022-12-07T14:41:39;11.70;;;5.90;;
37645;SDS011;23489;49.600;6.138;2022-12-07T14:44:21;10.35;;;5.70;;
37645;SDS011;23489;49.600;6.138;2022-12-07T14:46:49;12.23;;;6.47;;
37645;SDS011;23489;49.600;6.138;2022-12-07T14:49:15;11.48;;;5.30;;
37645;SDS011;23489;49.600;6.138;2022-12-07T14:51:43;9.50;;;6.07;;
37645;SDS011;23489;49.600;6.138;2022-12-07T14:54:15;8.95;;;5.47;;
37645;SDS011;23489;49.600;6.138;2022-12-07T14:56:43;11.80;;;6.10;;
37645;SDS011;23489;49.600;6.138;2022-12-07T14:59:10;9.55;;;6.60;;
37645;SDS011;23489;49.600;6.138;2022-12-07T15:01:37;10.27;;;5.95;;
37645;SDS011;23489;49.600;6.138;2022-12-07T15:04:03;11.50;;;5.95;;
37645;SDS011;23489;49.600;6.138;2022-12-07T15:06:29;9.48;;;5.88;;
37645;SDS011;23489;49.600;6.138;2022-12-07T15:08:54;12.57;;;6.22;;
37645;SDS011;23489;49.600;6.138;2022-12-07T15:11:20;9.93;;;6.78;;
37645;SDS011;23489;49.600;6.138;2022-12-07T15:13:46;12.23;;;6.55;;
37645;SDS011;23489;49.600;6.138;2022-12-07T15:16:30;9.25;;;5.82;;
37645;SDS011;23489;49.600;6.138;2022-12-07T15:18:56;11.63;;;6.38;;
37645;SDS011;23489;49.600;6.138;2022-12-07T15:21:22;16.10;;;6.53;;
37645;SDS011;23489;49.600;6.138;2022-12-07T15:23:47;9.20;;;6.43;;
37645;SDS011;23489;49.600;6.138;2022-12-07T15:26:13;12.27;;;7.10;;
37645;SDS011;23489;49.600;6.138;2022-12-07T15:28:39;9.85;;;6.00;;
37645;SDS011;23489;49.600;6.138;2022-12-07T15:31:12;11.32;;;6.68;;
37645;SDS011;23489;49.600;6.138;2022-12-07T15:33:42;12.20;;;7.28;;
37645;SDS011;23489;49.600;6.138;2022-12-07T15:36:09;14.15;;;7.00;;
37645;SDS011;23489;49.600;6.138;2022-12-07T15:38:45;11.23;;;6.75;;
37645;SDS011;23489;49.600;6.138;2022-12-07T15:41:11;14.98;;;6.43;;
37645;SDS011;23489;49.600;6.138;2022-12-07T15:43:37;11.48;;;6.25;;
37645;SDS011;23489;49.600;6.138;2022-12-07T15:46:21;10.80;;;6.53;;
37645;SDS011;23489;49.600;6.138;2022-12-07T15:48:46;11.70;;;7.38;;
37645;SDS011;23489;49.600;6.138;2022-12-07T15:51:12;13.30;;;7.22;;
37645;SDS011;23489;49.600;6.138;2022-12-07T15:53:38;12.45;;;7.43;;
37645;SDS011;23489;49.600;6.138;2022-12-07T15:56:07;11.93;;;6.70;;
37645;SDS011;23489;49.600;6.138;2022-12-07T15:58:33;13.50;;;7.82;;
37645;SDS011;23489;49.600;6.138;2022-12-07T16:00:59;15.45;;;7.55;;
37645;SDS011;23489;49.600;6.138;2022-12-07T16:03:26;15.20;;;7.57;;
37645;SDS011;23489;49.600;6.138;2022-12-07T16:05:52;11.75;;;7.05;;
37645;SDS011;23489;49.600;6.138;2022-12-07T16:08:18;12.20;;;6.70;;
37645;SDS011;23489;49.600;6.138;2022-12-07T16:10:44;13.20;;;7.47;;
37645;SDS011;23489;49.600;6.138;2022-12-07T16:13:10;12.52;;;8.02;;
37645;SDS011;23489;49.600;6.138;2022-12-07T16:15:39;14.60;;;7.82;;
37645;SDS011;23489;49.600;6.138;2022-12-07T16:18:05;13.45;;;7.75;;
37645;SDS011;23489;49.600;6.138;2022-12-07T16:20:31;13.27;;;7.35;;
37645;SDS011;23489;49.600;6.138;2022-12-07T16:22:57;11.52;;;7.55;;
37645;SDS011;23489;49.600;6.138;2022-12-07T16:25:23;20.45;;;8.55;;
37645;SDS011;23489;49.600;6.138;2022-12-07T16:27:49;13.88;;;7.85;;
37645;SDS011;23489;49.600;6.138;2022-12-07T16:30:15;13.35;;;7.78;;
37645;SDS011;23489;49.600;6.138;2022-12-07T16:32:42;12.45;;;7.68;;
37645;SDS011;23489;49.600;6.138;2022-12-07T16:35:09;16.08;;;8.50;;
37645;SDS011;23489;49.600;6.138;2022-12-07T16:37:35;15.40;;;7.20;;
37645;SDS011;23489;49.600;6.138;2022-12-07T16:40:00;13.13;;;7.40;;
37645;SDS011;23489;49.600;6.138;2022-12-07T16:42:26;13.57;;;8.18;;
37645;SDS011;23489;49.600;6.138;2022-12-07T16:44:56;14.13;;;7.68;;
37645;SDS011;23489;49.600;6.138;2022-12-07T16:47:21;13.93;;;8.07;;
37645;SDS011;23489;49.600;6.138;2022-12-07T16:49:47;17.25;;;8.23;;
37645;SDS011;23489;49.600;6.138;2022-12-07T16:52:13;15.38;;;7.55;;
37645;SDS011;23489;49.600;6.138;2022-12-07T16:54:38;16.90;;;8.40;;
37645;SDS011;23489;49.600;6.138;2022-12-07T16:57:04;16.50;;;8.00;;
37645;SDS011;23489;49.600;6.138;2022-12-07T16:59:30;16.40;;;8.30;;
37645;SDS011;23489;49.600;6.138;2022-12-07T17:01:56;19.08;;;9.52;;
37645;SDS011;23489;49.600;6.138;2022-12-07T17:04:22;17.40;;;9.05;;